createdAt,value
2024-02-14T00:00:57.597Z,3.4
2024-02-14T00:02:03.701Z,3.5
2024-02-14T00:03:09.804Z,3.4
2024-02-14T00:04:16.149Z,3.4
2024-02-14T00:05:22.254Z,3.4
2024-02-14T00:06:27.375Z,3.4
2024-02-14T00:07:33.480Z,3.4
2024-02-14T00:08:39.585Z,3.4
2024-02-14T00:09:45.690Z,3.4
2024-02-14T00:10:51.795Z,3.4
2024-02-14T00:11:57.900Z,3.4
2024-02-14T00:13:04.006Z,3.4
2024-02-14T00:14:10.111Z,3.4
2024-02-14T00:15:16.216Z,3.4
2024-02-14T00:17:28.424Z,3.4
2024-02-14T00:18:34.528Z,3.4
2024-02-14T00:19:40.872Z,3.4
2024-02-14T00:20:45.993Z,3.5
2024-02-14T00:21:52.098Z,3.5
2024-02-14T00:22:58.203Z,3.5
2024-02-14T00:24:04.307Z,3.4
2024-02-14T00:25:10.413Z,3.5
2024-02-14T00:26:16.518Z,3.4
2024-02-14T00:27:22.623Z,3.5
2024-02-14T00:28:28.728Z,3.5
2024-02-14T00:29:34.833Z,3.5
2024-02-14T00:30:40.938Z,3.5
2024-02-14T00:31:47.042Z,3.5
2024-02-14T00:32:53.146Z,3.5
2024-02-14T00:33:59.250Z,3.5
2024-02-14T00:35:05.592Z,3.6
2024-02-14T00:36:10.714Z,3.6
2024-02-14T00:37:16.819Z,3.6
2024-02-14T00:38:22.924Z,3.6
2024-02-14T00:39:29.030Z,3.6
2024-02-14T00:40:35.135Z,3.6
2024-02-14T00:41:41.240Z,3.6
2024-02-14T00:42:47.345Z,3.6
2024-02-14T00:43:53.450Z,3.6
2024-02-14T00:44:59.555Z,3.7
2024-02-14T00:46:05.661Z,3.7
2024-02-14T00:47:11.765Z,3.7
2024-02-14T00:48:17.869Z,3.7
2024-02-14T00:49:23.973Z,3.7
2024-02-14T00:50:30.315Z,3.7
2024-02-14T00:51:35.436Z,3.7
2024-02-14T00:52:41.541Z,3.7
2024-02-14T00:53:47.646Z,3.7
2024-02-14T00:54:53.751Z,3.7
2024-02-14T00:55:59.856Z,3.7
2024-02-14T00:57:05.961Z,3.8
2024-02-14T00:58:12.067Z,3.8
2024-02-14T00:59:18.172Z,3.8
2024-02-14T01:00:24.277Z,3.8
2024-02-14T01:01:30.382Z,3.8
2024-02-14T01:02:36.486Z,3.8
2024-02-14T01:03:42.591Z,3.8
2024-02-14T01:04:48.658Z,3.8
2024-02-14T01:05:55.037Z,3.8
2024-02-14T01:07:00.158Z,3.8
2024-02-14T01:08:06.264Z,3.8
2024-02-14T01:09:12.369Z,3.8
2024-02-14T01:10:18.474Z,3.8
2024-02-14T01:11:24.579Z,3.8
2024-02-14T01:12:30.684Z,3.8
2024-02-14T01:13:36.789Z,3.9
2024-02-14T01:14:42.895Z,3.8
2024-02-14T01:15:48.999Z,3.8
2024-02-14T01:16:55.104Z,3.9
2024-02-14T01:18:01.209Z,3.9
2024-02-14T01:19:07.313Z,3.8
2024-02-14T01:20:13.417Z,3.8
2024-02-14T01:21:19.759Z,3.8
2024-02-14T01:22:24.880Z,3.8
2024-02-14T01:23:30.985Z,3.8
2024-02-14T01:24:37.090Z,3.9
2024-02-14T01:25:43.196Z,3.9
2024-02-14T01:26:49.301Z,3.9
2024-02-14T01:27:55.406Z,3.9
2024-02-14T01:29:01.511Z,3.9
2024-02-14T01:30:07.616Z,3.9
2024-02-14T01:31:13.721Z,3.9
2024-02-14T01:32:19.826Z,3.9
2024-02-14T01:33:25.930Z,3.9
2024-02-14T01:34:32.034Z,3.9
2024-02-14T01:35:38.138Z,3.9
2024-02-14T01:36:44.481Z,3.9
2024-02-14T01:37:49.602Z,3.9
2024-02-14T01:38:55.707Z,3.9
2024-02-14T01:40:01.812Z,3.9
2024-02-14T01:41:07.917Z,3.9
2024-02-14T01:42:14.022Z,3.9
2024-02-14T01:43:20.128Z,3.9
2024-02-14T01:44:26.233Z,3.9
2024-02-14T01:45:32.338Z,3.9
2024-02-14T01:46:38.443Z,3.9
2024-02-14T01:47:44.548Z,3.9
2024-02-14T01:48:50.652Z,3.9
2024-02-14T01:49:56.756Z,3.9
2024-02-14T01:51:02.860Z,4
2024-02-14T01:52:09.203Z,4
2024-02-14T01:53:14.324Z,4
2024-02-14T01:54:20.429Z,4
2024-02-14T01:55:26.534Z,4
2024-02-14T01:56:32.639Z,4
2024-02-14T01:57:38.706Z,4
2024-02-14T01:58:44.849Z,4
2024-02-14T01:59:50.954Z,4
2024-02-14T02:00:57.059Z,4
2024-02-14T02:02:03.164Z,4
2024-02-14T02:03:09.270Z,4
2024-02-14T02:04:15.374Z,4
2024-02-14T02:05:21.478Z,3.9
2024-02-14T02:06:27.582Z,3.9
2024-02-14T02:07:33.925Z,3.9
2024-02-14T02:08:39.046Z,4
2024-02-14T02:09:45.151Z,3.9
2024-02-14T02:10:51.256Z,4
2024-02-14T02:11:57.362Z,4
2024-02-14T02:13:03.468Z,3.9
2024-02-14T02:14:09.573Z,4
2024-02-14T02:15:15.678Z,4
2024-02-14T02:16:21.783Z,4
2024-02-14T02:17:27.888Z,4
2024-02-14T02:18:33.993Z,4
2024-02-14T02:19:40.097Z,4
2024-02-14T02:20:46.201Z,4
2024-02-14T02:21:52.305Z,4
2024-02-14T02:22:58.650Z,4
2024-02-14T02:24:03.776Z,4
2024-02-14T02:25:09.883Z,4
2024-02-14T02:26:15.988Z,4.1
2024-02-14T02:27:22.093Z,4
2024-02-14T02:28:28.198Z,4
2024-02-14T02:29:34.303Z,4
2024-02-14T02:30:40.376Z,4
2024-02-14T02:31:46.514Z,4
2024-02-14T02:32:52.619Z,4
2024-02-14T02:33:58.724Z,3.9
2024-02-14T02:35:04.828Z,4
2024-02-14T02:36:10.932Z,4
2024-02-14T02:37:17.036Z,4
2024-02-14T02:38:23.374Z,4
2024-02-14T02:39:28.495Z,4
2024-02-14T02:40:34.601Z,4
2024-02-14T02:41:40.706Z,4
2024-02-14T02:42:46.811Z,4
2024-02-14T02:43:52.916Z,4
2024-02-14T02:44:59.021Z,4
2024-02-14T02:46:05.126Z,4
2024-02-14T02:47:11.232Z,4
2024-02-14T02:48:17.337Z,4
2024-02-14T02:49:23.442Z,4
2024-02-14T02:50:29.546Z,4
2024-02-14T02:51:35.651Z,4
2024-02-14T02:52:41.755Z,4
2024-02-14T02:53:48.097Z,4
2024-02-14T02:54:53.218Z,4
2024-02-14T02:55:59.323Z,4
2024-02-14T02:57:05.428Z,4
2024-02-14T02:58:11.533Z,4
2024-02-14T02:59:17.639Z,4
2024-02-14T03:00:23.744Z,4
2024-02-14T03:01:29.849Z,4.1
2024-02-14T03:02:35.954Z,4.1
2024-02-14T03:03:42.059Z,4.1
2024-02-14T03:04:48.164Z,4.1
2024-02-14T03:05:54.268Z,4.1
2024-02-14T03:07:00.372Z,4.1
2024-02-14T03:08:06.477Z,4.1
2024-02-14T03:09:12.819Z,4.1
2024-02-14T03:10:17.940Z,4.1
2024-02-14T03:11:24.045Z,4.1
2024-02-14T03:12:30.150Z,4.1
2024-02-14T03:13:36.255Z,4.1
2024-02-14T03:14:42.360Z,4.1
2024-02-14T03:15:48.465Z,4.1
2024-02-14T03:16:54.570Z,4.1
2024-02-14T03:18:00.675Z,4.1
2024-02-14T03:19:06.780Z,4.1
2024-02-14T03:20:12.886Z,4.1
2024-02-14T03:21:18.990Z,4.1
2024-02-14T03:22:25.094Z,4.1
2024-02-14T03:23:31.198Z,4.1
2024-02-14T03:24:37.540Z,4.1
2024-02-14T03:25:42.661Z,4.1
2024-02-14T03:26:48.766Z,4.1
2024-02-14T03:27:54.871Z,4.1
2024-02-14T03:29:00.976Z,4.1
2024-02-14T03:30:07.081Z,4.1
2024-02-14T03:31:13.187Z,4.1
2024-02-14T03:32:19.292Z,4.1
2024-02-14T03:33:25.397Z,4.1
2024-02-14T03:34:31.502Z,4.1
2024-02-14T03:35:37.607Z,4.1
2024-02-14T03:36:43.711Z,4.1
2024-02-14T03:37:49.815Z,4.1
2024-02-14T03:38:55.919Z,4.1
2024-02-14T03:40:02.261Z,4.1
2024-02-14T03:41:07.382Z,4.1
2024-02-14T03:42:13.487Z,4.1
2024-02-14T03:43:19.592Z,4.1
2024-02-14T03:44:25.697Z,4.2
2024-02-14T03:45:31.802Z,4.1
2024-02-14T03:46:37.908Z,4.2
2024-02-14T03:47:44.013Z,4.2
2024-02-14T03:48:50.117Z,4.2
2024-02-14T03:49:56.223Z,4.2
2024-02-14T03:51:02.328Z,4.2
2024-02-14T03:52:08.432Z,4.3
2024-02-14T03:53:14.536Z,4.3
2024-02-14T03:54:20.640Z,4.3
2024-02-14T03:55:26.983Z,4.3
2024-02-14T03:56:32.104Z,4.4
2024-02-14T03:57:38.210Z,4.3
2024-02-14T03:58:44.315Z,4.4
2024-02-14T03:59:50.420Z,4.4
2024-02-14T04:00:56.525Z,4.4
2024-02-14T04:02:02.630Z,4.4
2024-02-14T04:03:08.735Z,4.4
2024-02-14T04:04:14.841Z,4.4
2024-02-14T04:05:20.947Z,4.4
2024-02-14T04:06:27.052Z,4.5
2024-02-14T04:07:33.156Z,4.5
2024-02-14T04:08:39.260Z,4.5
2024-02-14T04:09:45.605Z,4.5
2024-02-14T04:10:50.726Z,4.5
2024-02-14T04:11:56.831Z,4.6
2024-02-14T04:13:02.936Z,4.6
2024-02-14T04:14:09.041Z,4.6
2024-02-14T04:15:15.147Z,4.7
2024-02-14T04:16:21.252Z,4.7
2024-02-14T04:17:27.357Z,4.7
2024-02-14T04:18:33.462Z,4.7
2024-02-14T04:19:39.567Z,4.7
2024-02-14T04:20:45.672Z,4.7
2024-02-14T04:21:51.776Z,4.8
2024-02-14T04:22:57.880Z,4.8
2024-02-14T04:24:04.170Z,4.8
2024-02-14T04:25:09.291Z,4.9
2024-02-14T04:26:15.396Z,4.9
2024-02-14T04:27:21.501Z,4.9
2024-02-14T04:28:27.606Z,4.9
2024-02-14T04:29:33.711Z,5
2024-02-14T04:30:39.816Z,5
2024-02-14T04:31:45.922Z,5
2024-02-14T04:32:52.027Z,5
2024-02-14T04:33:58.132Z,5
2024-02-14T04:35:04.237Z,5
2024-02-14T04:36:10.342Z,5.1
2024-02-14T04:37:16.409Z,5.1
2024-02-14T04:38:22.550Z,5.1
2024-02-14T04:39:28.892Z,5.1
2024-02-14T04:40:34.013Z,5.1
2024-02-14T04:41:40.119Z,5.1
2024-02-14T04:42:46.224Z,5.1
2024-02-14T04:43:52.329Z,5.1
2024-02-14T04:44:58.434Z,5.1
2024-02-14T04:46:04.539Z,5.1
2024-02-14T04:47:10.644Z,5.1
2024-02-14T04:48:16.749Z,5.1
2024-02-14T04:49:22.854Z,5.1
2024-02-14T04:50:28.959Z,5.2
2024-02-14T04:51:35.064Z,5.2
2024-02-14T04:52:41.168Z,5.2
2024-02-14T04:53:47.272Z,5.2
2024-02-14T04:54:53.614Z,5.3
2024-02-14T04:55:58.735Z,5.3
2024-02-14T04:57:04.840Z,5.3
2024-02-14T04:58:10.945Z,5.3
2024-02-14T04:59:17.050Z,5.3
2024-02-14T05:00:23.155Z,5.4
2024-02-14T05:01:29.260Z,5.4
2024-02-14T05:02:35.365Z,5.4
2024-02-14T05:03:41.471Z,5.4
2024-02-14T05:04:47.577Z,5.4
2024-02-14T05:05:53.682Z,5.4
2024-02-14T05:06:59.785Z,5.4
2024-02-14T05:08:05.889Z,5.4
2024-02-14T05:09:11.993Z,5.5
2024-02-14T05:10:18.337Z,5.5
2024-02-14T05:11:23.458Z,5.5
2024-02-14T05:12:29.563Z,5.4
2024-02-14T05:13:35.668Z,5.4
2024-02-14T05:14:41.773Z,5.4
2024-02-14T05:15:47.878Z,5.4
2024-02-14T05:16:53.983Z,5.5
2024-02-14T05:18:00.089Z,5.4
2024-02-14T05:19:06.194Z,5.4
2024-02-14T05:20:12.299Z,5.4
2024-02-14T05:21:18.405Z,5.4
2024-02-14T05:22:24.509Z,5.5
2024-02-14T05:23:30.612Z,5.5
2024-02-14T05:24:36.716Z,5.5
2024-02-14T05:25:43.060Z,5.5
2024-02-14T05:26:48.181Z,5.5
2024-02-14T05:27:54.286Z,5.5
2024-02-14T05:29:00.391Z,5.5
2024-02-14T05:30:06.496Z,5.5
2024-02-14T05:31:12.602Z,5.5
2024-02-14T05:32:18.707Z,5.5
2024-02-14T05:33:24.812Z,5.6
2024-02-14T05:34:30.917Z,5.6
2024-02-14T05:35:37.022Z,5.6
2024-02-14T05:36:43.127Z,5.6
2024-02-14T05:37:49.231Z,5.6
2024-02-14T05:38:55.335Z,5.6
2024-02-14T05:40:01.439Z,5.6
2024-02-14T05:41:07.784Z,5.6
2024-02-14T05:42:12.905Z,5.6
2024-02-14T05:43:19.010Z,5.6
2024-02-14T05:44:25.115Z,5.6
2024-02-14T05:45:31.220Z,5.7
2024-02-14T05:46:37.325Z,5.7
2024-02-14T05:47:43.430Z,5.7
2024-02-14T05:48:49.535Z,5.7
2024-02-14T05:49:55.640Z,5.7
2024-02-14T05:51:01.745Z,5.8
2024-02-14T05:52:08.003Z,5.8
2024-02-14T05:53:14.108Z,5.8
2024-02-14T05:54:20.212Z,5.8
2024-02-14T05:55:26.317Z,5.8
2024-02-14T05:56:31.438Z,5.8
2024-02-14T05:57:37.543Z,5.8
2024-02-14T05:58:43.648Z,5.8
2024-02-14T05:59:49.886Z,5.9
2024-02-14T06:00:55.990Z,5.9
2024-02-14T06:02:02.095Z,5.8
2024-02-14T06:03:08.200Z,5.9
2024-02-14T06:04:14.304Z,5.9
2024-02-14T06:05:19.546Z,5.9
2024-02-14T06:06:25.652Z,5.9
2024-02-14T06:07:31.757Z,5.9
2024-02-14T06:08:37.861Z,5.9
2024-02-14T06:09:43.967Z,5.9
2024-02-14T06:10:50.072Z,6
2024-02-14T06:11:56.177Z,6
2024-02-14T06:13:02.282Z,6
2024-02-14T06:14:08.403Z,6
2024-02-14T06:15:14.558Z,6
2024-02-14T06:16:20.663Z,6
2024-02-14T06:17:26.829Z,6
2024-02-14T06:18:32.983Z,6.1
2024-02-14T06:19:38.104Z,6.1
2024-02-14T06:20:44.209Z,6.1
2024-02-14T06:21:50.314Z,6.1
2024-02-14T06:22:56.419Z,6.2
2024-02-14T06:24:02.534Z,6.2
2024-02-14T06:25:08.688Z,6.2
2024-02-14T06:26:14.793Z,6.2
2024-02-14T06:27:20.960Z,6.2
2024-02-14T06:28:27.113Z,6.2
2024-02-14T06:29:33.218Z,6.3
2024-02-14T06:30:39.384Z,6.2
2024-02-14T06:31:45.538Z,6.2
2024-02-14T06:32:51.643Z,6.2
2024-02-14T06:33:56.764Z,6.2
2024-02-14T06:35:02.869Z,6.2
2024-02-14T06:36:08.974Z,6.2
2024-02-14T06:37:15.089Z,6.2
2024-02-14T06:38:21.243Z,6.3
2024-02-14T06:39:27.348Z,6.3
2024-02-14T06:40:33.515Z,6.3
2024-02-14T06:41:39.669Z,6.3
2024-02-14T06:42:45.774Z,6.3
2024-02-14T06:43:51.941Z,6.3
2024-02-14T06:44:58.095Z,6.3
2024-02-14T06:46:04.200Z,6.4
2024-02-14T06:47:10.367Z,6.4
2024-02-14T06:48:15.448Z,6.4
2024-02-14T06:49:21.593Z,6.4
2024-02-14T06:50:27.699Z,6.4
2024-02-14T06:51:33.804Z,6.4
2024-02-14T06:52:39.909Z,6.5
2024-02-14T06:53:46.072Z,6.5
2024-02-14T06:54:52.226Z,6.5
2024-02-14T06:55:58.331Z,6.6
2024-02-14T06:57:04.498Z,6.6
2024-02-14T06:58:10.652Z,6.7
2024-02-14T06:59:16.757Z,6.7
2024-02-14T07:00:22.925Z,6.7
2024-02-14T07:01:29.079Z,6.7
2024-02-14T07:02:34.200Z,6.7
2024-02-14T07:03:40.305Z,6.7
2024-02-14T07:04:46.410Z,6.8
2024-02-14T07:05:52.515Z,6.8
2024-02-14T07:06:58.630Z,6.8
2024-02-14T07:08:04.783Z,6.8
2024-02-14T07:09:10.890Z,6.8
2024-02-14T07:10:17.056Z,6.8
2024-02-14T07:11:23.210Z,6.8
2024-02-14T07:12:29.315Z,6.8
2024-02-14T07:13:35.482Z,6.9
2024-02-14T07:14:41.636Z,6.9
2024-02-14T07:15:47.742Z,6.9
2024-02-14T07:16:52.863Z,6.9
2024-02-14T07:17:58.968Z,6.9
2024-02-14T07:19:05.073Z,6.9
2024-02-14T07:20:11.187Z,6.9
2024-02-14T07:21:17.341Z,6.9
2024-02-14T07:22:23.446Z,6.9
2024-02-14T07:23:29.612Z,6.9
2024-02-14T07:24:35.767Z,6.9
2024-02-14T07:25:41.872Z,6.9
2024-02-14T07:26:48.038Z,6.9
2024-02-14T07:27:54.192Z,6.9
2024-02-14T07:29:00.298Z,6.9
2024-02-14T07:30:06.464Z,6.9
2024-02-14T07:31:11.585Z,6.9
2024-02-14T07:32:17.690Z,6.9
2024-02-14T07:33:23.795Z,6.9
2024-02-14T07:34:29.900Z,6.9
2024-02-14T07:35:36.007Z,6.9
2024-02-14T07:36:42.170Z,6.9
2024-02-14T07:37:48.324Z,6.9
2024-02-14T07:38:54.429Z,6.8
2024-02-14T07:40:00.596Z,6.8
2024-02-14T07:41:06.751Z,6.8
2024-02-14T07:42:12.856Z,6.8
2024-02-14T07:43:19.022Z,6.8
2024-02-14T07:44:25.176Z,6.8
2024-02-14T07:45:30.297Z,6.8
2024-02-14T07:46:36.402Z,6.8
2024-02-14T07:47:42.507Z,6.8
2024-02-14T07:48:48.612Z,6.8
2024-02-14T07:49:54.727Z,6.8
2024-02-14T07:52:06.986Z,6.9
2024-02-14T07:53:13.152Z,6.9
2024-02-14T07:54:19.307Z,6.9
2024-02-14T07:55:25.412Z,6.9
2024-02-14T07:56:31.578Z,6.9
2024-02-14T07:57:37.732Z,6.9
2024-02-14T07:58:43.837Z,6.9
2024-02-14T07:59:48.958Z,7
2024-02-14T08:00:55.063Z,6.9
2024-02-14T08:02:01.168Z,7
2024-02-14T08:03:07.283Z,7
2024-02-14T08:04:13.437Z,7
2024-02-14T08:05:19.542Z,7
2024-02-14T08:06:25.708Z,7.1
2024-02-14T08:07:31.862Z,7.1
2024-02-14T08:08:37.967Z,7.1
2024-02-14T08:09:44.134Z,7.2
2024-02-14T08:10:50.288Z,7.2
2024-02-14T08:11:56.393Z,7.2
2024-02-14T08:13:02.560Z,7.2
2024-02-14T08:14:07.681Z,7.2
2024-02-14T08:15:13.786Z,7.3
2024-02-14T08:16:19.891Z,7.3
2024-02-14T08:17:25.996Z,7.3
2024-02-14T08:18:32.101Z,7.4
2024-02-14T08:19:38.263Z,7.4
2024-02-14T08:20:44.417Z,7.4
2024-02-14T08:21:50.522Z,7.4
2024-02-14T08:22:56.689Z,7.4
2024-02-14T08:24:02.843Z,7.4
2024-02-14T08:25:08.948Z,7.5
2024-02-14T08:26:15.114Z,7.5
2024-02-14T08:27:21.268Z,7.5
2024-02-14T08:28:26.389Z,7.6
2024-02-14T08:29:32.493Z,7.7
2024-02-14T08:30:38.599Z,7.7
2024-02-14T08:31:44.704Z,7.7
2024-02-14T08:32:50.818Z,7.8
2024-02-14T08:33:56.972Z,7.8
2024-02-14T08:35:03.077Z,7.8
2024-02-14T08:36:09.243Z,7.9
2024-02-14T08:37:15.397Z,7.9
2024-02-14T08:38:21.501Z,7.9
2024-02-14T08:39:27.667Z,7.9
2024-02-14T08:40:33.822Z,7.9
2024-02-14T08:41:39.927Z,7.9
2024-02-14T08:42:45.048Z,7.9
2024-02-14T08:43:51.152Z,8
2024-02-14T08:44:57.257Z,7.9
2024-02-14T08:46:03.371Z,8
2024-02-14T08:47:09.525Z,8
2024-02-14T08:48:15.630Z,8
2024-02-14T08:49:21.796Z,8.1
2024-02-14T08:50:27.950Z,8.1
2024-02-14T08:51:34.055Z,8.2
2024-02-14T08:52:40.221Z,8.2
2024-02-14T08:53:46.375Z,8.2
2024-02-14T08:54:52.479Z,8.3
2024-02-14T08:55:58.645Z,8.3
2024-02-14T08:57:03.766Z,8.3
2024-02-14T08:58:09.871Z,8.3
2024-02-14T08:59:15.975Z,8.3
2024-02-14T09:00:22.080Z,8.3
2024-02-14T09:01:28.185Z,8.3
2024-02-14T09:02:34.348Z,8.3
2024-02-14T09:03:40.502Z,8.3
2024-02-14T09:04:46.607Z,8.4
2024-02-14T09:05:52.773Z,8.3
2024-02-14T09:06:58.927Z,8.3
2024-02-14T09:08:05.031Z,8.3
2024-02-14T09:09:11.197Z,8.3
2024-02-14T09:10:17.351Z,8.3
2024-02-14T09:11:22.472Z,8.3
2024-02-14T09:12:28.576Z,8.4
2024-02-14T09:13:34.681Z,8.4
2024-02-14T09:14:40.786Z,8.4
2024-02-14T09:15:46.899Z,8.5
2024-02-14T09:16:53.053Z,8.4
2024-02-14T09:17:59.158Z,8.5
2024-02-14T09:19:05.324Z,8.5
2024-02-14T09:20:11.478Z,8.5
2024-02-14T09:21:17.583Z,8.5
2024-02-14T09:22:23.749Z,8.5
2024-02-14T09:23:29.903Z,8.5
2024-02-14T09:24:36.007Z,8.6
2024-02-14T09:25:41.128Z,8.6
2024-02-14T09:26:47.232Z,8.6
2024-02-14T09:27:53.337Z,8.6
2024-02-14T09:28:59.451Z,8.7
2024-02-14T09:30:05.605Z,8.7
2024-02-14T09:31:11.710Z,8.7
2024-02-14T09:32:17.876Z,8.8
2024-02-14T09:33:24.030Z,8.8
2024-02-14T09:34:30.134Z,8.8
2024-02-14T09:35:36.300Z,8.9
2024-02-14T09:36:42.454Z,8.9
2024-02-14T09:37:48.559Z,9
2024-02-14T09:38:54.726Z,9
2024-02-14T09:39:59.846Z,9.1
2024-02-14T09:41:05.951Z,9.1
2024-02-14T09:42:12.056Z,9.2
2024-02-14T09:43:18.160Z,9.2
2024-02-14T09:44:24.265Z,9.2
2024-02-14T09:45:30.428Z,9.2
2024-02-14T09:46:35.554Z,9.2
2024-02-14T09:47:41.659Z,9.2
2024-02-14T09:48:47.763Z,9.2
2024-02-14T09:49:53.868Z,9.2
2024-02-14T09:50:59.973Z,9.2
2024-02-14T09:52:06.131Z,9.2
2024-02-14T09:53:12.285Z,9.3
2024-02-14T09:54:18.389Z,9.3
2024-02-14T09:55:24.556Z,9.3
2024-02-14T09:56:30.710Z,9.3
2024-02-14T09:57:36.814Z,9.3
2024-02-14T09:58:42.981Z,9.4
2024-02-14T09:59:49.134Z,9.4
2024-02-14T10:00:54.255Z,9.4
2024-02-14T10:02:00.360Z,9.5
2024-02-14T10:03:06.465Z,9.5
2024-02-14T10:04:12.569Z,9.6
2024-02-14T10:05:18.683Z,9.6
2024-02-14T10:06:24.837Z,9.6
2024-02-14T10:07:30.942Z,9.7
2024-02-14T10:08:37.109Z,9.7
2024-02-14T10:09:43.262Z,9.8
2024-02-14T10:10:49.367Z,10
2024-02-14T10:11:55.533Z,10.1
2024-02-14T10:13:01.687Z,10.2
2024-02-14T10:14:07.792Z,10.2
2024-02-14T10:15:12.913Z,10.3
2024-02-14T10:16:19.018Z,10.2
2024-02-14T10:17:25.123Z,10.2
2024-02-14T10:18:31.237Z,10.2
2024-02-14T10:19:37.390Z,10.2
2024-02-14T10:20:43.495Z,10.3
2024-02-14T10:21:49.662Z,10.2
2024-02-14T10:22:55.816Z,10.3
2024-02-14T10:24:01.920Z,10.4
2024-02-14T10:25:08.044Z,10.5
2024-02-14T10:26:14.241Z,10.7
2024-02-14T10:27:20.346Z,10.7
2024-02-14T10:28:26.512Z,10.7
2024-02-14T10:29:31.632Z,10.7
2024-02-14T10:30:37.737Z,10.6
2024-02-14T10:31:43.842Z,10.6
2024-02-14T10:32:49.946Z,10.6
2024-02-14T10:33:56.051Z,10.6
2024-02-14T10:35:02.214Z,10.5
2024-02-14T10:36:08.368Z,10.5
2024-02-14T10:37:14.473Z,10.4
2024-02-14T10:38:20.639Z,10.3
2024-02-14T10:39:26.792Z,10.3
2024-02-14T10:40:32.897Z,10.2
2024-02-14T10:41:39.064Z,10.1
2024-02-14T10:42:45.218Z,10.2
2024-02-14T10:43:50.338Z,10.1
2024-02-14T10:44:56.443Z,10.1
2024-02-14T10:46:02.548Z,10.1
2024-02-14T10:47:08.653Z,10.1
2024-02-14T10:48:14.766Z,10.1
2024-02-14T10:49:20.921Z,10.1
2024-02-14T10:50:27.025Z,10.1
2024-02-14T10:51:33.192Z,10.1
2024-02-14T10:52:39.345Z,10.2
2024-02-14T10:53:45.450Z,10.2
2024-02-14T10:54:51.616Z,10.2
2024-02-14T10:55:57.770Z,10.2
2024-02-14T10:57:03.874Z,10.2
2024-02-14T10:58:08.995Z,10.2
2024-02-14T10:59:15.100Z,10.1
2024-02-14T11:00:21.204Z,10.1
2024-02-14T11:01:27.319Z,10.1
2024-02-14T11:02:33.473Z,10.1
2024-02-14T11:03:39.577Z,10.1
2024-02-14T11:04:45.744Z,10.1
2024-02-14T11:05:51.898Z,10.1
2024-02-14T11:06:58.003Z,10
2024-02-14T11:08:04.169Z,10.1
2024-02-14T11:09:10.322Z,10.1
2024-02-14T11:10:16.427Z,10.1
2024-02-14T11:11:22.594Z,10.1
2024-02-14T11:12:27.715Z,10
2024-02-14T11:13:33.819Z,10.1
2024-02-14T11:14:39.924Z,10.1
2024-02-14T11:15:46.029Z,10.1
2024-02-14T11:16:52.134Z,10.1
2024-02-14T11:17:58.296Z,10.2
2024-02-14T11:19:04.450Z,10.2
2024-02-14T11:20:10.555Z,10.2
2024-02-14T11:21:16.722Z,10.3
2024-02-14T11:22:22.875Z,10.4
2024-02-14T11:23:28.980Z,10.4
2024-02-14T11:24:35.147Z,10.4
2024-02-14T11:25:41.300Z,10.4
2024-02-14T11:26:46.421Z,10.4
2024-02-14T11:27:52.526Z,10.4
2024-02-14T11:28:58.631Z,10.3
2024-02-14T11:30:04.735Z,10.3
2024-02-14T11:31:10.849Z,10.3
2024-02-14T11:32:17.003Z,10.3
2024-02-14T11:33:23.109Z,10.4
2024-02-14T11:34:29.275Z,10.4
2024-02-14T11:35:35.429Z,10.5
2024-02-14T11:36:41.534Z,10.6
2024-02-14T11:37:47.700Z,10.6
2024-02-14T11:38:53.854Z,10.7
2024-02-14T11:39:59.958Z,10.7
2024-02-14T11:41:05.079Z,10.7
2024-02-14T11:42:11.184Z,10.7
2024-02-14T11:43:17.289Z,10.7
2024-02-14T11:44:23.403Z,10.8
2024-02-14T11:45:29.556Z,10.8
2024-02-14T11:46:35.661Z,10.8
2024-02-14T11:47:41.827Z,10.8
2024-02-14T11:48:47.981Z,10.8
2024-02-14T11:49:54.086Z,10.7
2024-02-14T11:51:00.252Z,10.6
2024-02-14T11:52:06.406Z,10.6
2024-02-14T11:53:12.511Z,10.7
2024-02-14T11:54:18.677Z,10.7
2024-02-14T11:55:23.798Z,10.6
2024-02-14T11:56:29.902Z,10.7
2024-02-14T11:57:36.007Z,10.7
2024-02-14T11:58:42.111Z,10.7
2024-02-14T11:59:48.216Z,10.8
2024-02-14T12:00:54.379Z,10.8
2024-02-14T12:02:00.488Z,10.9
2024-02-14T12:03:06.638Z,10.9
2024-02-14T12:04:12.804Z,11
2024-02-14T12:05:18.957Z,11
2024-02-14T12:06:25.062Z,11.1
2024-02-14T12:07:31.228Z,11.1
2024-02-14T12:08:37.382Z,11
2024-02-14T12:09:42.503Z,11
2024-02-14T12:10:48.607Z,11
2024-02-14T12:11:54.712Z,11
2024-02-14T12:13:00.816Z,11
2024-02-14T12:14:06.930Z,11
2024-02-14T12:15:13.084Z,11
2024-02-14T12:16:19.189Z,10.9
2024-02-14T12:17:25.354Z,10.9
2024-02-14T12:18:31.508Z,10.8
2024-02-14T12:19:37.613Z,10.9
2024-02-14T12:20:43.779Z,10.8
2024-02-14T12:21:49.933Z,10.8
2024-02-14T12:22:56.038Z,10.8
2024-02-14T12:24:01.159Z,10.8
2024-02-14T12:25:07.263Z,10.8
2024-02-14T12:26:13.368Z,10.8
2024-02-14T12:27:19.482Z,10.9
2024-02-14T12:28:25.636Z,10.9
2024-02-14T12:29:31.740Z,10.9
2024-02-14T12:30:37.906Z,11
2024-02-14T12:31:44.060Z,11
2024-02-14T12:32:50.165Z,11
2024-02-14T12:33:56.331Z,10.9
2024-02-14T12:35:02.485Z,10.9
2024-02-14T12:36:08.589Z,10.9
2024-02-14T12:37:14.755Z,10.9
2024-02-14T12:38:19.876Z,10.9
2024-02-14T12:39:25.980Z,10.9
2024-02-14T12:40:32.085Z,11
2024-02-14T12:41:38.190Z,11
2024-02-14T12:42:44.295Z,11
2024-02-14T12:43:50.458Z,11
2024-02-14T12:44:56.611Z,10.9
2024-02-14T12:46:02.716Z,10.9
2024-02-14T12:47:08.882Z,10.9
2024-02-14T12:48:15.036Z,10.9
2024-02-14T12:49:21.140Z,11
2024-02-14T12:50:27.307Z,11
2024-02-14T12:51:33.460Z,11
2024-02-14T12:52:38.581Z,11
2024-02-14T12:53:44.686Z,11
2024-02-14T12:54:50.791Z,11.1
2024-02-14T12:55:56.895Z,11.1
2024-02-14T12:57:03.009Z,11.1
2024-02-14T12:58:09.163Z,11.1
2024-02-14T12:59:15.267Z,11
2024-02-14T13:00:21.434Z,11
2024-02-14T13:01:27.587Z,11.1
2024-02-14T13:02:33.692Z,11.1
2024-02-14T13:03:39.858Z,11.1
2024-02-14T13:04:46.012Z,11.1
2024-02-14T13:05:52.116Z,11.2
2024-02-14T13:06:57.237Z,11.2
2024-02-14T13:08:03.342Z,11.2
2024-02-14T13:09:09.446Z,11.2
2024-02-14T13:10:15.561Z,11.2
2024-02-14T13:11:21.714Z,11.3
2024-02-14T13:12:27.819Z,11.2
2024-02-14T13:13:33.985Z,11.2
2024-02-14T13:14:40.139Z,11.3
2024-02-14T13:15:46.243Z,11.4
2024-02-14T13:16:52.410Z,11.4
2024-02-14T13:17:58.563Z,11.4
2024-02-14T13:19:04.668Z,11.4
2024-02-14T13:20:10.834Z,11.4
2024-02-14T13:21:15.955Z,11.4
2024-02-14T13:22:22.059Z,11.4
2024-02-14T13:23:28.164Z,11.5
2024-02-14T13:24:34.268Z,11.5
2024-02-14T13:25:40.373Z,11.5
2024-02-14T13:26:46.537Z,11.4
2024-02-14T13:27:51.663Z,11.4
2024-02-14T13:28:57.767Z,11.4
2024-02-14T13:30:03.872Z,11.4
2024-02-14T13:31:09.977Z,11.3
2024-02-14T13:32:16.081Z,11.2
2024-02-14T13:33:22.239Z,11.2
2024-02-14T13:34:28.393Z,11.1
2024-02-14T13:35:34.497Z,11
2024-02-14T13:36:40.663Z,11
2024-02-14T13:37:46.817Z,10.9
2024-02-14T13:38:52.922Z,10.9
2024-02-14T13:39:59.088Z,10.9
2024-02-14T13:41:05.242Z,10.9
2024-02-14T13:42:10.362Z,10.9
2024-02-14T13:43:16.467Z,10.9
2024-02-14T13:44:22.572Z,11
2024-02-14T13:45:28.676Z,11
2024-02-14T13:46:34.790Z,10.9
2024-02-14T13:47:40.944Z,10.9
2024-02-14T13:48:47.049Z,10.9
2024-02-14T13:49:53.214Z,10.9
2024-02-14T13:50:59.368Z,10.9
2024-02-14T13:52:05.473Z,10.9
2024-02-14T13:53:11.639Z,10.9
2024-02-14T13:54:17.793Z,10.8
2024-02-14T13:55:23.897Z,10.9
2024-02-14T13:56:29.018Z,10.8
2024-02-14T13:57:35.123Z,10.8
2024-02-14T13:58:41.228Z,10.8
2024-02-14T13:59:47.342Z,10.8
2024-02-14T14:00:53.496Z,10.8
2024-02-14T14:01:59.601Z,10.8
2024-02-14T14:03:05.767Z,10.8
2024-02-14T14:04:11.921Z,10.7
2024-02-14T14:05:18.025Z,10.7
2024-02-14T14:06:24.192Z,10.7
2024-02-14T14:07:30.345Z,10.8
2024-02-14T14:08:36.450Z,10.8
2024-02-14T14:09:42.616Z,10.8
2024-02-14T14:10:47.737Z,10.7
2024-02-14T14:11:53.842Z,10.7
2024-02-14T14:12:59.946Z,10.7
2024-02-14T14:14:06.051Z,10.7
2024-02-14T14:15:12.155Z,10.6
2024-02-14T14:16:18.318Z,10.7
2024-02-14T14:17:24.473Z,10.7
2024-02-14T14:18:30.577Z,10.7
2024-02-14T14:19:36.743Z,10.7
2024-02-14T14:20:42.898Z,10.7
2024-02-14T14:21:49.002Z,10.7
2024-02-14T14:22:55.169Z,10.7
2024-02-14T14:24:01.323Z,10.7
2024-02-14T14:25:06.444Z,10.7
2024-02-14T14:26:12.548Z,10.7
2024-02-14T14:27:18.653Z,10.7
2024-02-14T14:28:24.757Z,10.8
2024-02-14T14:29:30.871Z,10.7
2024-02-14T14:30:37.025Z,10.7
2024-02-14T14:31:43.129Z,10.7
2024-02-14T14:32:49.296Z,10.7
2024-02-14T14:33:55.449Z,10.7
2024-02-14T14:35:01.554Z,10.7
2024-02-14T14:36:07.720Z,10.7
2024-02-14T14:37:13.874Z,10.7
2024-02-14T14:38:19.978Z,10.7
2024-02-14T14:39:25.099Z,10.7
2024-02-14T14:40:31.204Z,10.7
2024-02-14T14:41:37.308Z,10.7
2024-02-14T14:42:43.422Z,10.7
2024-02-14T14:43:49.576Z,10.8
2024-02-14T14:44:55.682Z,10.7
2024-02-14T14:46:01.848Z,10.7
2024-02-14T14:47:08.002Z,10.7
2024-02-14T14:48:14.106Z,10.7
2024-02-14T14:49:20.272Z,10.7
2024-02-14T14:50:26.426Z,10.6
2024-02-14T14:51:32.531Z,10.6
2024-02-14T14:52:38.697Z,10.6
2024-02-14T14:53:43.818Z,10.6
2024-02-14T14:54:49.922Z,10.5
2024-02-14T14:55:56.027Z,10.5
2024-02-14T14:57:02.132Z,10.4
2024-02-14T14:58:08.237Z,10.4
2024-02-14T14:59:14.399Z,10.4
2024-02-14T15:00:20.553Z,10.4
2024-02-14T15:01:26.657Z,10.4
2024-02-14T15:02:32.824Z,10.3
2024-02-14T15:03:38.978Z,10.3
2024-02-14T15:04:45.083Z,10.3
2024-02-14T15:05:51.249Z,10.3
2024-02-14T15:06:57.402Z,10.2
2024-02-14T15:08:02.523Z,10.2
2024-02-14T15:09:08.628Z,10.2
2024-02-14T15:10:14.732Z,10.1